Terminal Aerodrome Forecast
Issued by NWS Cleveland, OH

Home | Current Version | Previous Version | Graphics & Text | Print | Product List | Glossary Off
Versions: 1 2 3 4 5 6 7 8 9 10 11 12 13 14 15 16 17 18 19 20 21 22 23 24 25 26 27 28 29

932
FTUS41 KCLE 250716 AAC
TAFCLE
TAF AMD
KCLE 250716Z 2507/2612 25012KT P6SM VCSH SCT025 BKN060
      TEMPO 2507/2508 -SHRA BKN022
     FM251300 25015G25KT P6SM BKN025
     FM251500 25018G28KT 6SM -SHSN OVC020
     FM260300 27015G23KT P6SM BKN020=

USA.gov is the U.S. government's official web portal to all federal, state and local government web resources and services.